createdAt,value
2022-12-12T00:01:49.623Z,963.67
2022-12-12T00:11:49.837Z,963.80
2022-12-12T00:21:49.991Z,963.70
2022-12-12T00:31:50.212Z,963.76
2022-12-12T00:41:50.368Z,963.70
2022-12-12T00:51:50.586Z,963.73
2022-12-12T01:01:50.768Z,963.67
2022-12-12T01:11:50.854Z,963.74
2022-12-12T01:21:51.007Z,963.85
2022-12-12T01:31:51.196Z,963.84
2022-12-12T01:41:51.363Z,963.85
2022-12-12T01:51:51.579Z,964.00
2022-12-12T02:01:51.760Z,964.01
2022-12-12T02:11:51.950Z,964.04
2022-12-12T02:21:52.095Z,963.99
2022-12-12T02:31:52.431Z,964.04
2022-12-12T02:41:52.435Z,964.05
2022-12-12T02:51:52.655Z,964.13
2022-12-12T03:01:52.958Z,964.11
2022-12-12T03:11:52.945Z,963.96
2022-12-12T03:21:53.177Z,964.08
2022-12-12T03:31:53.390Z,964.08
2022-12-12T03:41:53.455Z,963.98
2022-12-12T03:51:53.673Z,964.19
2022-12-12T04:01:53.889Z,964.34
2022-12-12T04:11:53.963Z,964.43
2022-12-12T04:21:54.112Z,964.58
2022-12-12T04:31:54.391Z,964.58
2022-12-12T04:41:54.787Z,964.59
2022-12-12T04:51:54.674Z,964.71
2022-12-12T05:01:55.038Z,964.78
2022-12-12T05:11:55.041Z,964.80
2022-12-12T05:21:55.188Z,964.80
2022-12-12T05:31:55.414Z,964.81
2022-12-12T05:41:55.587Z,964.84
2022-12-12T05:51:55.809Z,964.87
2022-12-12T06:01:55.957Z,964.88
2022-12-12T06:11:56.187Z,964.87
2022-12-12T06:21:56.326Z,964.96
2022-12-12T06:31:56.566Z,965.04
2022-12-12T06:41:56.809Z,965.13
2022-12-12T06:51:56.975Z,965.07
2022-12-12T07:01:57.100Z,965.20
2022-12-12T07:11:57.439Z,965.33
2022-12-12T07:21:57.377Z,965.34
2022-12-12T07:31:57.622Z,965.40
2022-12-12T07:41:57.943Z,965.51
2022-12-12T07:51:58.250Z,965.68
2022-12-12T08:01:58.242Z,965.60
2022-12-12T08:11:58.442Z,965.67
2022-12-12T08:21:58.536Z,965.72
2022-12-12T08:31:58.773Z,965.74
2022-12-12T08:41:58.996Z,965.84
2022-12-12T08:51:59.091Z,965.81
2022-12-12T09:01:59.704Z,965.93
2022-12-12T09:11:59.866Z,965.71
2022-12-12T09:21:59.587Z,965.86
2022-12-12T09:31:59.847Z,965.98
2022-12-12T09:41:59.898Z,965.83
2022-12-12T09:52:00.121Z,965.77
2022-12-12T10:02:00.328Z,965.44
2022-12-12T10:12:04.962Z,965.40
2022-12-12T10:22:01.779Z,965.46
2022-12-12T10:32:01.110Z,965.36
2022-12-12T10:42:00.908Z,965.32
2022-12-12T10:52:01.121Z,965.20
2022-12-12T11:02:10.100Z,965.06
2022-12-12T11:12:02.637Z,965.09
2022-12-12T11:22:01.911Z,964.98
2022-12-12T11:32:01.998Z,964.86
2022-12-12T11:42:02.074Z,964.71
2022-12-12T11:52:02.287Z,964.81
2022-12-12T12:02:02.463Z,964.76
2022-12-12T12:12:02.657Z,964.91
2022-12-12T12:22:02.925Z,964.83
2022-12-12T12:32:02.971Z,964.73
2022-12-12T12:42:03.213Z,964.73
2022-12-12T12:52:03.732Z,964.62
2022-12-12T13:02:03.462Z,964.70
2022-12-12T13:12:03.606Z,964.69
2022-12-12T13:22:03.726Z,964.70
2022-12-12T13:32:04.028Z,964.82
2022-12-12T13:42:04.291Z,964.78
2022-12-12T13:52:04.241Z,964.88
2022-12-12T14:02:04.373Z,964.81
2022-12-12T14:12:04.519Z,964.90
2022-12-12T14:22:04.713Z,964.90
2022-12-12T14:32:04.835Z,964.95
2022-12-12T14:42:04.999Z,964.90
2022-12-12T14:52:05.222Z,964.92
2022-12-12T15:02:05.583Z,964.78
2022-12-12T15:12:05.462Z,964.75
2022-12-12T15:22:05.819Z,964.75
2022-12-12T15:32:05.965Z,964.97
2022-12-12T15:42:05.907Z,965.01
2022-12-12T15:52:06.102Z,965.06
2022-12-12T16:02:06.256Z,964.93
2022-12-12T16:12:06.444Z,964.91
2022-12-12T16:22:06.948Z,964.91
2022-12-12T16:32:06.815Z,965.06
2022-12-12T16:42:06.978Z,965.16
2022-12-12T16:52:07.267Z,965.32
2022-12-12T17:02:07.394Z,965.41
2022-12-12T17:12:07.474Z,965.35
2022-12-12T17:22:07.641Z,965.25
2022-12-12T17:32:07.862Z,965.26
2022-12-12T17:42:08.043Z,965.32
2022-12-12T17:52:08.488Z,965.19
2022-12-12T18:02:08.436Z,965.26
2022-12-12T18:12:08.660Z,965.32
2022-12-12T18:22:08.806Z,965.32
2022-12-12T18:32:09.075Z,965.30
2022-12-12T18:42:09.232Z,965.36
2022-12-12T18:52:09.328Z,965.35
2022-12-12T19:02:09.538Z,965.54
2022-12-12T19:12:09.789Z,965.45
2022-12-12T19:22:39.977Z,965.29
2022-12-12T19:32:11.044Z,965.22
2022-12-12T19:42:10.198Z,965.18
2022-12-12T19:52:14.002Z,965.17
2022-12-12T20:02:10.632Z,965.14
2022-12-12T20:12:10.818Z,965.18
2022-12-12T20:22:10.973Z,965.16
2022-12-12T20:32:11.188Z,965.18
2022-12-12T20:42:11.370Z,965.11
2022-12-12T20:52:11.702Z,965.17
2022-12-12T21:02:11.743Z,965.12
2022-12-12T21:12:11.940Z,965.06
2022-12-12T21:22:12.118Z,964.98
2022-12-12T21:32:12.267Z,964.86
2022-12-12T21:42:12.442Z,964.92
2022-12-12T21:52:12.643Z,964.88
2022-12-12T22:02:12.811Z,964.89
2022-12-12T22:12:13.011Z,964.77
2022-12-12T22:22:14.163Z,964.78
2022-12-12T22:32:13.386Z,964.81
2022-12-12T22:42:13.552Z,964.80
2022-12-12T22:52:14.064Z,964.75
2022-12-12T23:02:13.890Z,964.64
2022-12-12T23:12:14.092Z,964.55
2022-12-12T23:22:14.267Z,964.43
2022-12-12T23:32:14.474Z,964.37
2022-12-12T23:42:14.654Z,964.21
2022-12-12T23:52:14.859Z,964.00
